createdAt,value
2019-02-26T00:01:02.926Z,99911.53
2019-02-26T00:03:35.430Z,99909.55
2019-02-26T00:06:07.543Z,99905.62
2019-02-26T00:08:39.508Z,99915.16
2019-02-26T00:11:11.510Z,99920.98
2019-02-26T00:13:43.495Z,99927.13
2019-02-26T00:16:17.703Z,99931.13
2019-02-26T00:18:49.346Z,99922.43
2019-02-26T00:21:22.702Z,99923.89
2019-02-26T00:23:55.202Z,99929.87
2019-02-26T00:26:27.193Z,99926.46
2019-02-26T00:28:59.794Z,99925.37
2019-02-26T00:31:33.084Z,99923.37
2019-02-26T00:34:06.014Z,99911.84
2019-02-26T00:36:38.961Z,99917.80
2019-02-26T00:39:10.938Z,99917.63
2019-02-26T00:41:42.900Z,99922.53
2019-02-26T00:44:14.902Z,99919.28
2019-02-26T00:46:46.850Z,99921.44
2019-02-26T00:49:21.031Z,99923.45
2019-02-26T00:51:52.873Z,99923.45
2019-02-26T00:54:26.666Z,99920.71
2019-02-26T00:57:01.067Z,99915.68
2019-02-26T00:59:32.656Z,99918.39
2019-02-26T01:02:04.627Z,99916.04
2019-02-26T01:04:36.591Z,99917.12
2019-02-26T01:07:08.580Z,99918.41
2019-02-26T01:09:40.563Z,99917.30
2019-02-26T01:12:13.801Z,99909.02
2019-02-26T01:14:48.079Z,99907.02
2019-02-26T01:17:20.263Z,99903.25
2019-02-26T01:19:52.258Z,99898.00
2019-02-26T01:22:24.193Z,99893.68
2019-02-26T01:24:56.747Z,99890.05
2019-02-26T01:27:30.083Z,99879.22
2019-02-26T01:30:03.468Z,99878.87
2019-02-26T01:32:35.553Z,99870.20
2019-02-26T01:35:08.885Z,99875.97
2019-02-26T01:37:41.394Z,99880.49
2019-02-26T01:40:15.854Z,99883.02
2019-02-26T01:42:51.933Z,99879.42
2019-02-26T01:45:22.366Z,99885.37
2019-02-26T01:47:54.999Z,99877.61
2019-02-26T01:50:28.390Z,99870.01
2019-02-26T01:53:01.152Z,99867.84
2019-02-26T01:55:33.249Z,99862.99
2019-02-26T01:58:05.205Z,99870.58
2019-02-26T02:00:38.652Z,99852.88
2019-02-26T02:03:11.062Z,99848.91
2019-02-26T02:05:43.944Z,99856.49
2019-02-26T02:08:17.905Z,99848.54
2019-02-26T02:10:53.598Z,99845.67
2019-02-26T02:13:28.332Z,99842.95
2019-02-26T02:15:59.731Z,99839.52
2019-02-26T02:18:32.402Z,99833.39
2019-02-26T02:21:04.386Z,99837.00
2019-02-26T02:23:36.351Z,99837.53
2019-02-26T02:26:09.394Z,99842.42
2019-02-26T02:28:42.253Z,99846.75
2019-02-26T02:31:14.221Z,99848.20
2019-02-26T02:33:46.214Z,99841.50
2019-02-26T02:36:20.523Z,99836.81
2019-02-26T02:38:52.057Z,99833.03
2019-02-26T02:41:24.004Z,99830.86
2019-02-26T02:43:56.000Z,99826.35
2019-02-26T02:46:27.972Z,99825.08
2019-02-26T02:48:59.940Z,99828.34
2019-02-26T02:51:34.615Z,99834.11
2019-02-26T02:54:05.780Z,99825.28
2019-02-26T02:56:39.867Z,99827.05
2019-02-26T02:59:14.004Z,99829.95
2019-02-26T03:01:48.837Z,99830.88
2019-02-26T03:04:20.235Z,99838.82
2019-02-26T03:06:55.482Z,99829.61
2019-02-26T03:09:27.270Z,99833.58
2019-02-26T03:11:59.230Z,99829.59
2019-02-26T03:14:33.839Z,99827.25
2019-02-26T03:17:06.390Z,99826.90
2019-02-26T03:19:41.618Z,99828.89
2019-02-26T03:22:15.249Z,99818.06
2019-02-26T03:24:48.340Z,99823.12
2019-02-26T03:27:20.666Z,99820.77
2019-02-26T03:29:55.588Z,99817.69
2019-02-26T03:32:26.561Z,99812.82
2019-02-26T03:35:02.035Z,99817.51
2019-02-26T03:37:34.624Z,99816.61
2019-02-26T03:40:08.233Z,99811.01
2019-02-26T03:42:43.354Z,99801.98
2019-02-26T03:45:15.192Z,99800.73
2019-02-26T03:47:47.152Z,99796.58
2019-02-26T03:50:19.164Z,99799.83
2019-02-26T03:52:51.159Z,99795.50
2019-02-26T03:55:23.143Z,99795.13
2019-02-26T03:57:57.135Z,99795.52
2019-02-26T04:00:31.554Z,99788.64
2019-02-26T04:03:03.919Z,99783.79
2019-02-26T04:05:38.878Z,99786.13
2019-02-26T04:08:10.825Z,99796.05
2019-02-26T04:10:42.801Z,99786.67
2019-02-26T04:13:14.748Z,99786.50
2019-02-26T04:15:46.722Z,99785.96
2019-02-26T04:18:18.675Z,99781.80
2019-02-26T04:20:50.649Z,99783.97
2019-02-26T04:23:22.608Z,99783.97
2019-02-26T04:26:51.192Z,99781.08
2019-02-26T04:29:57.337Z,99782.34
2019-02-26T04:33:24.913Z,99782.34
2019-02-26T04:36:20.323Z,99780.00
2019-02-26T04:39:34.445Z,99781.25
2019-02-26T04:42:37.730Z,99790.81
2019-02-26T04:46:13.627Z,99787.73
2019-02-26T04:48:45.684Z,99781.23
2019-02-26T04:51:17.671Z,99781.79
2019-02-26T04:53:51.940Z,99777.81
2019-02-26T04:56:24.865Z,99765.21
2019-02-26T04:58:56.887Z,99766.09
2019-02-26T05:01:28.901Z,99766.45
2019-02-26T05:04:00.887Z,99759.59
2019-02-26T05:06:32.934Z,99762.84
2019-02-26T05:09:05.591Z,99755.64
2019-02-26T05:11:40.782Z,99755.81
2019-02-26T05:14:15.386Z,99761.95
2019-02-26T05:16:46.823Z,99761.77
2019-02-26T05:19:21.512Z,99758.33
2019-02-26T05:21:53.498Z,99758.18
2019-02-26T05:24:26.710Z,99756.52
2019-02-26T05:26:58.767Z,99752.41
2019-02-26T05:29:30.766Z,99752.94
2019-02-26T05:32:04.110Z,99751.67
2019-02-26T05:34:39.681Z,99749.16
2019-02-26T05:37:13.778Z,99748.78
2019-02-26T05:39:46.894Z,99753.27
2019-02-26T05:42:19.435Z,99757.41
2019-02-26T05:44:53.804Z,99757.95
2019-02-26T05:47:26.699Z,99754.17
2019-02-26T05:49:59.617Z,99752.17
2019-02-26T05:52:33.680Z,99767.31
2019-02-26T05:55:06.514Z,99767.67
2019-02-26T05:57:38.497Z,99761.20
2019-02-26T06:00:13.398Z,99765.34
2019-02-26T06:02:47.701Z,99768.41
2019-02-26T06:05:22.545Z,99780.09
2019-02-26T06:07:54.159Z,99776.50
2019-02-26T06:10:27.182Z,99775.58
2019-02-26T06:13:02.066Z,99786.19
2019-02-26T06:15:34.238Z,99785.83
2019-02-26T06:18:07.528Z,99787.61
2019-02-26T06:20:39.523Z,99785.09
2019-02-26T06:23:11.492Z,99780.37
2019-02-26T06:25:43.499Z,99787.77
2019-02-26T06:28:17.868Z,99785.83
2019-02-26T06:30:50.513Z,99785.05
2019-02-26T06:33:23.592Z,99781.67
2019-02-26T06:35:57.149Z,99784.56
2019-02-26T06:38:32.212Z,99784.73
2019-02-26T06:41:03.454Z,99788.88
2019-02-26T06:43:37.819Z,99783.84
2019-02-26T06:46:11.731Z,99785.17
2019-02-26T06:48:43.214Z,99789.85
2019-02-26T06:51:15.203Z,99804.45
2019-02-26T06:53:49.389Z,99803.59
2019-02-26T06:56:21.130Z,99799.99
2019-02-26T06:58:53.088Z,99808.46
2019-02-26T07:01:25.080Z,99807.59
2019-02-26T07:03:57.050Z,99808.48
2019-02-26T07:06:30.174Z,99815.34
2019-02-26T07:09:03.795Z,99815.72
2019-02-26T07:11:37.829Z,99817.87
2019-02-26T07:14:10.351Z,99821.83
2019-02-26T07:16:42.580Z,99822.35
2019-02-26T07:19:16.709Z,99813.27
2019-02-26T07:21:51.287Z,99807.59
2019-02-26T07:24:24.483Z,99805.28
2019-02-26T07:26:56.763Z,99801.93
2019-02-26T07:29:30.776Z,99803.87
2019-02-26T07:32:02.661Z,99804.27
2019-02-26T07:34:34.701Z,99811.55
2019-02-26T07:37:09.326Z,99809.63
2019-02-26T07:39:42.445Z,99811.84
2019-02-26T07:42:16.950Z,99803.83
2019-02-26T07:44:49.573Z,99811.59
2019-02-26T07:47:22.137Z,99798.64
2019-02-26T07:49:56.542Z,99791.41
2019-02-26T07:52:28.928Z,99797.44
2019-02-26T07:55:03.763Z,99794.95
2019-02-26T07:57:35.963Z,99790.65
2019-02-26T08:00:10.225Z,99792.86
2019-02-26T08:02:42.226Z,99798.25
2019-02-26T08:05:16.184Z,99798.77
2019-02-26T08:07:49.232Z,99800.92
2019-02-26T08:10:22.078Z,99798.70
2019-02-26T08:12:56.086Z,99800.56
2019-02-26T08:15:30.195Z,99800.23
2019-02-26T08:18:03.442Z,99796.28
2019-02-26T08:20:37.701Z,99799.50
2019-02-26T08:23:10.912Z,99794.81
2019-02-26T08:25:42.893Z,99787.67
2019-02-26T08:28:15.442Z,99780.88
2019-02-26T08:30:49.820Z,99789.01
2019-02-26T08:33:22.681Z,99796.03
2019-02-26T08:35:56.086Z,99791.33
2019-02-26T08:38:30.053Z,99787.94
2019-02-26T08:41:02.148Z,99793.89
2019-02-26T08:43:34.132Z,99794.08
2019-02-26T08:46:07.295Z,99793.64
2019-02-26T08:48:41.290Z,99787.03
2019-02-26T08:51:16.312Z,99774.09
2019-02-26T08:53:49.533Z,99770.45
2019-02-26T08:56:23.905Z,99767.39
2019-02-26T08:58:55.647Z,99775.79
2019-02-26T09:01:27.779Z,99770.36
2019-02-26T09:04:00.800Z,99776.88
2019-02-26T09:06:32.896Z,99762.34
2019-02-26T09:09:06.849Z,99765.34
2019-02-26T09:11:38.979Z,99770.75
2019-02-26T09:14:12.112Z,99759.25
2019-02-26T09:16:47.681Z,99757.70
2019-02-26T09:19:18.715Z,99759.99
2019-02-26T09:21:52.406Z,99750.92
2019-02-26T09:24:24.696Z,99754.09
2019-02-26T09:26:57.549Z,99754.38
2019-02-26T09:29:31.462Z,99755.13
2019-02-26T09:32:06.680Z,99746.88
2019-02-26T09:34:39.831Z,99746.89
2019-02-26T09:37:13.263Z,99750.66
2019-02-26T09:39:45.232Z,99735.95
2019-02-26T09:42:17.341Z,99746.78
2019-02-26T09:44:50.648Z,99736.66
2019-02-26T09:47:32.836Z,99732.97
2019-02-26T09:50:44.304Z,99725.00
2019-02-26T09:53:16.159Z,99728.50
2019-02-26T09:55:48.140Z,99729.94
2019-02-26T09:58:21.217Z,99735.00
2019-02-26T10:00:54.238Z,99734.53
2019-02-26T10:03:27.370Z,99731.61
2019-02-26T10:06:00.117Z,99732.75
2019-02-26T10:08:32.173Z,99731.12
2019-02-26T10:11:04.875Z,99730.36
2019-02-26T10:13:39.624Z,99733.31
2019-02-26T10:16:11.959Z,99724.55
2019-02-26T10:18:45.018Z,99722.95
2019-02-26T10:21:20.338Z,99728.00
2019-02-26T10:23:53.961Z,99722.21
2019-02-26T10:26:26.315Z,99722.35
2019-02-26T10:29:04.429Z,99721.67
2019-02-26T10:31:33.512Z,99717.26
2019-02-26T10:34:07.861Z,99719.64
2019-02-26T10:36:43.429Z,99714.56
2019-02-26T10:39:15.087Z,99698.55
2019-02-26T10:41:47.291Z,99701.84
2019-02-26T10:44:19.291Z,99703.37
2019-02-26T10:46:52.376Z,99704.70
2019-02-26T10:49:24.354Z,99708.56
2019-02-26T10:51:57.749Z,99702.94
2019-02-26T10:54:32.150Z,99700.66
2019-02-26T10:57:07.599Z,99705.30
2019-02-26T10:59:38.200Z,99702.63
2019-02-26T11:02:10.269Z,99696.97
2019-02-26T11:04:43.924Z,99698.53
2019-02-26T11:07:16.181Z,99700.09
2019-02-26T11:09:52.634Z,99693.64
2019-02-26T11:12:27.380Z,99691.47
2019-02-26T11:14:58.640Z,99688.67
2019-02-26T11:17:31.685Z,99681.64
2019-02-26T11:20:05.267Z,99682.46
2019-02-26T11:22:41.624Z,99681.91
2019-02-26T11:25:16.359Z,99690.98
2019-02-26T11:27:49.086Z,99685.89
2019-02-26T11:30:23.834Z,99678.77
2019-02-26T11:32:59.373Z,99679.36
2019-02-26T11:35:30.162Z,99677.55
2019-02-26T11:38:02.182Z,99663.00
2019-02-26T11:40:34.249Z,99673.41
2019-02-26T11:43:11.505Z,99668.30
2019-02-26T11:45:44.407Z,99659.96
2019-02-26T11:48:17.549Z,99667.91
2019-02-26T11:50:49.755Z,99663.59
2019-02-26T11:53:21.719Z,99659.61
2019-02-26T11:55:54.991Z,99660.25
2019-02-26T11:58:27.621Z,99656.84
2019-02-26T12:01:01.382Z,99648.74
2019-02-26T12:03:36.375Z,99648.14
2019-02-26T12:06:07.311Z,99649.61
2019-02-26T12:08:40.593Z,99637.33
2019-02-26T12:11:17.596Z,99638.02
2019-02-26T12:13:47.909Z,99634.38
2019-02-26T12:16:22.208Z,99634.20
2019-02-26T12:18:54.225Z,99634.08
2019-02-26T12:21:28.058Z,99630.70
2019-02-26T12:24:03.198Z,99632.92
2019-02-26T12:26:35.056Z,99630.98
2019-02-26T12:29:07.025Z,99627.44
2019-02-26T12:31:39.248Z,99625.23
2019-02-26T12:34:12.378Z,99612.04
2019-02-26T12:36:48.088Z,99614.38
2019-02-26T12:39:21.422Z,99606.20
2019-02-26T12:41:53.136Z,99603.89
2019-02-26T12:44:25.155Z,99609.48
2019-02-26T12:47:00.173Z,99605.19
2019-02-26T12:49:35.626Z,99605.02
2019-02-26T12:52:06.740Z,99594.89
2019-02-26T12:54:42.236Z,99588.73
2019-02-26T12:57:18.845Z,99585.51
2019-02-26T12:59:49.813Z,99581.15
2019-02-26T13:02:25.664Z,99576.13
2019-02-26T13:04:55.787Z,99570.05
2019-02-26T13:07:27.875Z,99573.47
2019-02-26T13:10:03.375Z,99569.74
2019-02-26T13:12:33.910Z,99562.85
2019-02-26T13:15:09.742Z,99563.52
2019-02-26T13:17:44.319Z,99557.04
2019-02-26T13:20:19.134Z,99559.13
2019-02-26T13:22:56.185Z,99552.73
2019-02-26T13:25:26.752Z,99542.55
2019-02-26T13:27:59.202Z,99547.00
2019-02-26T13:30:32.913Z,99552.50
2019-02-26T13:35:41.886Z,99552.84
2019-02-26T13:38:13.042Z,99545.85
2019-02-26T13:40:45.225Z,99539.90
2019-02-26T13:43:17.267Z,99544.77
2019-02-26T13:45:49.254Z,99537.71
2019-02-26T13:48:21.282Z,99531.39
2019-02-26T13:50:53.467Z,99524.34
2019-02-26T13:53:25.959Z,99531.30
2019-02-26T13:55:58.006Z,99526.88
2019-02-26T13:58:31.115Z,99528.08
2019-02-26T14:01:04.841Z,99518.70
2019-02-26T14:03:37.070Z,99512.13
2019-02-26T14:06:09.072Z,99509.95
2019-02-26T14:08:41.104Z,99510.16
2019-02-26T14:11:13.284Z,99501.34
2019-02-26T14:13:46.451Z,99505.38
2019-02-26T14:16:18.439Z,99505.99
2019-02-26T14:18:50.458Z,99501.47
2019-02-26T14:21:22.469Z,99497.44
2019-02-26T14:23:54.524Z,99496.27
2019-02-26T14:26:26.625Z,99494.53
2019-02-26T14:28:58.725Z,99492.52
2019-02-26T14:31:30.691Z,99491.38
2019-02-26T14:34:02.740Z,99488.95
2019-02-26T14:36:34.740Z,99483.55
2019-02-26T14:39:07.271Z,99482.25
2019-02-26T14:41:39.388Z,99471.89
2019-02-26T14:44:11.413Z,99468.07
2019-02-26T14:46:44.548Z,99462.02
2019-02-26T14:49:16.563Z,99461.66
2019-02-26T14:51:48.779Z,99460.14
2019-02-26T14:54:20.819Z,99461.84
2019-02-26T14:56:52.975Z,99454.38
2019-02-26T14:59:25.000Z,99454.90
2019-02-26T15:01:57.001Z,99452.22
2019-02-26T15:04:30.322Z,99450.04
2019-02-26T15:07:02.332Z,99436.79
2019-02-26T15:09:34.739Z,99438.25
2019-02-26T15:12:06.748Z,99439.06
2019-02-26T15:14:38.834Z,99438.00
2019-02-26T15:17:10.854Z,99439.55
2019-02-26T15:19:49.676Z,99439.86
2019-02-26T15:22:17.076Z,99445.55
2019-02-26T15:24:49.156Z,99448.45
2019-02-26T15:27:21.178Z,99443.20
2019-02-26T15:29:53.394Z,99449.74
2019-02-26T15:32:25.530Z,99446.36
2019-02-26T15:34:57.572Z,99440.78
2019-02-26T15:37:29.611Z,99439.95
2019-02-26T15:40:01.815Z,99444.66
2019-02-26T15:42:33.845Z,99448.63
2019-02-26T15:45:09.248Z,99448.28
2019-02-26T15:47:41.221Z,99444.89
2019-02-26T15:50:13.168Z,99446.48
2019-02-26T15:52:45.222Z,99441.50
2019-02-26T15:55:18.219Z,99448.28
2019-02-26T15:57:50.257Z,99446.77
2019-02-26T16:00:22.893Z,99449.19
2019-02-26T16:02:58.994Z,99439.23
2019-02-26T16:05:29.115Z,99438.32
2019-02-26T16:08:01.173Z,99448.63
2019-02-26T16:10:33.583Z,99442.14
2019-02-26T16:13:05.643Z,99447.11
2019-02-26T16:15:37.644Z,99442.61
2019-02-26T16:18:09.668Z,99452.84
2019-02-26T16:20:41.663Z,99451.80
2019-02-26T16:23:13.715Z,99453.38
2019-02-26T16:25:45.730Z,99456.18
2019-02-26T16:28:17.742Z,99453.06
2019-02-26T16:30:49.832Z,99453.94
2019-02-26T16:33:21.910Z,99455.46
2019-02-26T16:35:57.434Z,99455.72
2019-02-26T16:38:27.978Z,99458.53
2019-02-26T16:41:00.027Z,99461.28
2019-02-26T16:43:32.025Z,99452.29
2019-02-26T16:46:08.375Z,99464.20
2019-02-26T16:48:38.406Z,99462.63
2019-02-26T16:51:10.624Z,99474.63
2019-02-26T16:53:42.676Z,99477.41
2019-02-26T16:56:14.928Z,99479.88
2019-02-26T16:58:46.976Z,99480.58
2019-02-26T17:01:19.710Z,99483.40
2019-02-26T17:03:52.965Z,99487.25
2019-02-26T17:06:25.008Z,99481.77
2019-02-26T17:08:57.039Z,99480.59
2019-02-26T17:11:29.089Z,99490.41
2019-02-26T17:14:01.079Z,99488.02
2019-02-26T17:16:33.236Z,99494.36
2019-02-26T17:19:05.222Z,99488.06
2019-02-26T17:21:37.358Z,99490.36
2019-02-26T17:24:09.378Z,99491.05
2019-02-26T17:26:41.394Z,99491.52
2019-02-26T17:29:14.870Z,99500.13
2019-02-26T17:31:47.565Z,99497.53
2019-02-26T17:34:20.340Z,99496.38
2019-02-26T17:36:53.622Z,99504.34
2019-02-26T17:39:27.871Z,99508.03
2019-02-26T17:41:59.565Z,99505.50
2019-02-26T17:44:31.611Z,99512.39
2019-02-26T17:47:03.702Z,99514.66
2019-02-26T17:49:36.315Z,99514.33
2019-02-26T17:52:08.975Z,99517.64
2019-02-26T17:54:40.962Z,99518.45
2019-02-26T17:57:13.018Z,99519.29
2019-02-26T17:59:45.037Z,99518.05
2019-02-26T18:02:17.066Z,99526.17
2019-02-26T18:04:49.089Z,99523.80
2019-02-26T18:07:21.136Z,99528.33
2019-02-26T18:09:53.208Z,99530.80
2019-02-26T18:12:25.239Z,99532.63
2019-02-26T18:14:57.291Z,99523.94
2019-02-26T18:17:29.287Z,99521.28
2019-02-26T18:20:01.419Z,99523.20
2019-02-26T18:22:33.435Z,99524.77
2019-02-26T18:25:06.080Z,99524.81
2019-02-26T18:27:38.144Z,99518.16
2019-02-26T18:30:18.151Z,99525.97
2019-02-26T18:32:53.182Z,99524.44
2019-02-26T18:35:24.374Z,99521.75
2019-02-26T18:37:56.399Z,99521.98
2019-02-26T18:40:29.053Z,99526.08
2019-02-26T18:43:01.233Z,99529.24
2019-02-26T18:45:33.327Z,99526.77
2019-02-26T18:48:05.354Z,99532.39
2019-02-26T18:50:39.092Z,99528.78
2019-02-26T18:53:11.760Z,99530.31
2019-02-26T18:55:45.336Z,99533.88
2019-02-26T18:58:17.330Z,99543.26
2019-02-26T19:00:49.395Z,99546.05
2019-02-26T19:03:21.479Z,99545.80
2019-02-26T19:05:54.661Z,99541.94
2019-02-26T19:08:26.919Z,99545.73
2019-02-26T19:10:59.035Z,99540.09
2019-02-26T19:13:33.263Z,99544.89
2019-02-26T19:16:05.053Z,99549.23
2019-02-26T19:18:38.498Z,99548.42
2019-02-26T19:21:10.659Z,99550.93
2019-02-26T19:23:42.657Z,99548.80
2019-02-26T19:26:14.734Z,99543.93
2019-02-26T19:28:46.874Z,99544.57
2019-02-26T19:31:18.973Z,99544.86
2019-02-26T19:33:54.467Z,99543.92
2019-02-26T19:36:24.992Z,99536.61
2019-02-26T19:39:00.713Z,99540.88
2019-02-26T19:41:30.975Z,99539.70
2019-02-26T19:44:03.049Z,99547.53
2019-02-26T19:46:35.111Z,99545.19
2019-02-26T19:49:07.150Z,99545.41
2019-02-26T19:51:39.266Z,99543.34
2019-02-26T19:54:11.288Z,99543.34
2019-02-26T19:56:43.401Z,99551.69
2019-02-26T19:59:15.451Z,99547.30
2019-02-26T20:01:47.527Z,99541.42
2019-02-26T20:04:19.582Z,99542.63
2019-02-26T20:06:51.670Z,99537.68
2019-02-26T20:09:23.712Z,99535.55
2019-02-26T20:11:56.208Z,99527.12
2019-02-26T20:14:29.026Z,99526.64
2019-02-26T20:17:11.594Z,99527.75
2019-02-26T20:19:35.048Z,99529.27
2019-02-26T20:22:09.832Z,99529.37
2019-02-26T20:24:41.875Z,99527.05
2019-02-26T20:27:14.002Z,99521.25
2019-02-26T20:29:46.048Z,99517.36
2019-02-26T20:32:18.212Z,99521.27
2019-02-26T20:34:50.351Z,99518.57
2019-02-26T20:37:24.422Z,99515.91
2019-02-26T20:39:56.488Z,99516.05
2019-02-26T20:42:28.918Z,99519.34
2019-02-26T20:45:01.579Z,99515.37
2019-02-26T20:47:33.635Z,99514.56
2019-02-26T20:50:05.801Z,99514.61
2019-02-26T20:52:37.865Z,99513.80
2019-02-26T20:55:11.593Z,99518.96
2019-02-26T20:57:43.632Z,99516.92
2019-02-26T21:00:16.683Z,99517.08
2019-02-26T21:02:48.729Z,99517.12
2019-02-26T21:05:25.043Z,99525.97
2019-02-26T21:07:58.822Z,99525.11
2019-02-26T21:10:31.123Z,99518.30
2019-02-26T21:13:03.151Z,99517.41
2019-02-26T21:15:35.213Z,99512.85
2019-02-26T21:18:07.223Z,99508.12
2019-02-26T21:20:41.142Z,99509.94
2019-02-26T21:23:13.422Z,99512.69
2019-02-26T21:25:47.464Z,99517.45
2019-02-26T21:28:19.402Z,99514.45
2019-02-26T21:30:51.490Z,99519.80
2019-02-26T21:33:24.693Z,99524.17
2019-02-26T21:35:56.804Z,99517.80
2019-02-26T21:38:28.800Z,99515.13
2019-02-26T21:41:00.969Z,99510.02
2019-02-26T21:43:35.491Z,99505.69
2019-02-26T21:46:08.864Z,99506.23
2019-02-26T21:48:42.064Z,99507.88
2019-02-26T21:51:14.166Z,99508.78
2019-02-26T21:53:46.678Z,99505.37
2019-02-26T21:56:20.135Z,99509.84
2019-02-26T21:58:52.183Z,99509.29
2019-02-26T22:01:25.777Z,99511.83
2019-02-26T22:03:58.600Z,99514.27
2019-02-26T22:06:31.423Z,99511.38
2019-02-26T22:09:04.684Z,99504.70
2019-02-26T22:11:36.688Z,99512.02
2019-02-26T22:14:08.700Z,99509.11
2019-02-26T22:16:40.752Z,99510.75
2019-02-26T22:19:12.764Z,99514.31
2019-02-26T22:22:04.287Z,99514.03
2019-02-26T22:24:37.807Z,99516.42
2019-02-26T22:27:10.235Z,99514.21
2019-02-26T22:29:42.238Z,99515.63
2019-02-26T22:32:14.303Z,99508.80
2019-02-26T22:34:46.303Z,99508.37
2019-02-26T22:37:18.349Z,99504.63
2019-02-26T22:39:50.377Z,99500.56
2019-02-26T22:42:22.412Z,99503.09
2019-02-26T22:44:55.244Z,99505.63
2019-02-26T22:47:28.338Z,99502.77
2019-02-26T22:50:00.373Z,99498.28
2019-02-26T22:52:32.380Z,99501.39
2019-02-26T22:55:04.835Z,99504.24
2019-02-26T22:57:36.889Z,99502.77
2019-02-26T23:00:54.334Z,99504.38
2019-02-26T23:03:26.492Z,99508.88
2019-02-26T23:05:59.060Z,99513.37
2019-02-26T23:08:32.414Z,99518.34
2019-02-26T23:11:04.509Z,99521.22
2019-02-26T23:13:36.605Z,99517.40
2019-02-26T23:16:08.646Z,99517.81
2019-02-26T23:18:40.843Z,99523.67
2019-02-26T23:21:15.734Z,99519.80
2019-02-26T23:23:47.734Z,99520.13
2019-02-26T23:26:19.699Z,99517.59
2019-02-26T23:28:54.432Z,99518.88
2019-02-26T23:31:25.826Z,99519.77
2019-02-26T23:33:57.817Z,99516.66
2019-02-26T23:36:29.813Z,99517.79
2019-02-26T23:39:01.855Z,99518.73
2019-02-26T23:41:34.023Z,99515.16
2019-02-26T23:44:06.052Z,99520.42
2019-02-26T23:46:38.140Z,99517.97
2019-02-26T23:49:11.778Z,99524.25
2019-02-26T23:51:44.000Z,99517.22
2019-02-26T23:54:15.981Z,99513.62
2019-02-26T23:56:49.854Z,99520.95
2019-02-26T23:59:21.885Z,99522.77
